Observation data for Guthrie on 11/17/2019      Previous  Date       Current Mesonet Observations  Soil Data  Daily Summary Page  Observations in Plain Language
KPFS 170600Z 19006KT 08/04 A2997 RMK A01 T00830035  RH  073%=      5-min Rain = 0
KPFS 170605Z 19005KT 08/04 A2997 RMK A01 T00820035  RH  074%=      5-min Rain = 0
KPFS 170610Z 20004KT 08/04 A2997 RMK A01 T00820036  RH  074%=      5-min Rain = 0
KPFS 170615Z 20004KT 08/04 A2997 RMK A01 T00810035  RH  074%=      5-min Rain = 0
KPFS 170620Z 19005KT 08/04 A2996 RMK A01 T00800035  RH  075%=      5-min Rain = 0
KPFS 170625Z 19006KT 08/04 A2996 RMK A01 T00800036  RH  075%=      5-min Rain = 0
KPFS 170630Z 19006KT 08/04 A2996 RMK A01 T00810036  RH  075%=      5-min Rain = 0
KPFS 170635Z 19004KT 08/04 A2996 RMK A01 T00800036  RH  075%=      5-min Rain = 0
KPFS 170640Z 19004KT 08/03 A2996 RMK A01 T00780034  RH  075%=      5-min Rain = 0
KPFS 170645Z 20005KT 08/03 A2996 RMK A01 T00760034  RH  076%=      5-min Rain = 0
KPFS 170650Z 21003KT 07/03 A2996 RMK A01 T00740033  RH  076%=      5-min Rain = 0
KPFS 170655Z 20003KT 07/03 A2996 RMK A01 T00700031  RH  078%=      5-min Rain = 0
KPFS 170700Z 20002KT 07/03 A2996 RMK A01 T00680032  RH  079%=      5-min Rain = 0
KPFS 170705Z 19002KT 07/03 A2996 RMK A01 T00690033  RH  079%=      5-min Rain = 0
KPFS 170710Z 19002KT 07/03 A2996 RMK A01 T00700034  RH  079%=      5-min Rain = 0
KPFS 170715Z 19003KT 07/03 A2996 RMK A01 T00710034  RH  079%=      5-min Rain = 0
KPFS 170720Z 20002KT 07/03 A2996 RMK A01 T00720034  RH  078%=      5-min Rain = 0
KPFS 170725Z 21003KT 07/03 A2996 RMK A01 T00720034  RH  078%=      5-min Rain = 0
KPFS 170730Z 21002KT 07/03 A2996 RMK A01 T00710034  RH  079%=      5-min Rain = 0
KPFS 170735Z 24001KT 07/03 A2997 RMK A01 T00710034  RH  079%=      5-min Rain = 0
KPFS 170740Z 24000KT 07/04 A2996 RMK A01 T00740036  RH  079%=      5-min Rain = 0
KPFS 170745Z 17000KT 08/04 A2996 RMK A01 T00770036  RH  076%=      5-min Rain = 0
KPFS 170750Z 18003KT 08/04 A2996 RMK A01 T00780035  RH  076%=      5-min Rain = 0
KPFS 170755Z 17005KT 08/04 A2996 RMK A01 T00770035  RH  076%=      5-min Rain = 0
KPFS 170800Z 17005KT 08/04 A2995 RMK A01 T00760035  RH  077%=      5-min Rain = 0
KPFS 170805Z 16006KT 07/03 A2995 RMK A01 T00730034  RH  078%=      5-min Rain = 0
KPFS 170810Z 16007KT 07/03 A2995 RMK A01 T00700033  RH  079%=      5-min Rain = 0
KPFS 170815Z 17008KT 07/04 A2995 RMK A01 T00720035  RH  079%=      5-min Rain = 0
KPFS 170820Z 16008KT 07/03 A2995 RMK A01 T00710033  RH  078%=      5-min Rain = 0
KPFS 170825Z 16007KT 07/03 A2995 RMK A01 T00680032  RH  079%=      5-min Rain = 0
KPFS 170830Z 17007KT 07/03 A2995 RMK A01 T00670031  RH  079%=      5-min Rain = 0
KPFS 170835Z 17007KT 06/02 A2995 RMK A01 T00550023  RH  081%=      5-min Rain = 0
KPFS 170840Z 18006KT 05/02 A2995 RMK A01 T00520024  RH  084%=      5-min Rain = 0
KPFS 170845Z 18005KT 05/03 A2995 RMK A01 T00510026  RH  085%=      5-min Rain = 0
KPFS 170850Z 19004KT 05/03 A2995 RMK A01 T00520027  RH  085%=      5-min Rain = 0
KPFS 170855Z 20004KT 05/03 A2995 RMK A01 T00530028  RH  085%=      5-min Rain = 0
KPFS 170900Z 19005KT 05/03 A2995 RMK A01 T00520027  RH  085%=      5-min Rain = 0
KPFS 170905Z 19004KT 05/03 A2995 RMK A01 T00500026  RH  086%=      5-min Rain = 0
KPFS 170910Z 21002KT 05/03 A2996 RMK A01 T00500026  RH  086%=      5-min Rain = 0
KPFS 170915Z 22001KT 05/03 A2996 RMK A01 T00500027  RH  087%=      5-min Rain = 0
KPFS 170920Z 22001KT 05/03 A2996 RMK A01 T00520030  RH  087%=      5-min Rain = 0
KPFS 170925Z 29001KT 05/03 A2996 RMK A01 T00540031  RH  087%=      5-min Rain = 0
KPFS 170930Z 01005KT 05/02 A2997 RMK A01 T00460023  RH  086%=      5-min Rain = 0
KPFS 170935Z 01003KT 04/02 A2997 RMK A01 T00400020  RH  088%=      5-min Rain = 0
KPFS 170940Z 36004KT 04/02 A2997 RMK A01 T00430024  RH  089%=      5-min Rain = 0
KPFS 170945Z 33003KT 05/03 A2997 RMK A01 T00500032  RH  090%=      5-min Rain = 0
KPFS 170950Z 31003KT 05/03 A2997 RMK A01 T00540034  RH  089%=      5-min Rain = 0
KPFS 170955Z 32003KT 05/03 A2998 RMK A01 T00500028  RH  087%=      5-min Rain = 0
KPFS 171000Z 32003KT 05/03 A2997 RMK A01 T00490028  RH  088%=      5-min Rain = 0
KPFS 171005Z 30004KT 05/03 A2997 RMK A01 T00490028  RH  088%=      5-min Rain = 0
KPFS 171010Z 29003KT 05/03 A2997 RMK A01 T00490029  RH  088%=      5-min Rain = 0
KPFS 171015Z 28002KT 05/03 A2997 RMK A01 T00490029  RH  089%=      5-min Rain = 0
KPFS 171020Z 28004KT 05/03 A2998 RMK A01 T00490029  RH  088%=      5-min Rain = 0
KPFS 171025Z 27004KT 04/02 A2998 RMK A01 T00430022  RH  088%=      5-min Rain = 0
KPFS 171030Z 24004KT 04/02 A2998 RMK A01 T00370018  RH  088%=      5-min Rain = 0
KPFS 171035Z 24004KT 04/02 A2998 RMK A01 T00380020  RH  090%=      5-min Rain = 0
KPFS 171040Z 26005KT 04/02 A2998 RMK A01 T00400023  RH  090%=      5-min Rain = 0
KPFS 171045Z 29005KT 04/03 A2999 RMK A01 T00420025  RH  090%=      5-min Rain = 0
KPFS 171050Z 31005KT 04/02 A30 RMK A01 T00380021  RH  090%=      5-min Rain = 0
KPFS 171055Z 30005KT 04/02 A30 RMK A01 T00380022  RH  090%=      5-min Rain = 0
KPFS 171100Z 31006KT 04/02 A30 RMK A01 T00400024  RH  091%=      5-min Rain = 0
KPFS 171105Z 33006KT 04/03 A30 RMK A01 T00440028  RH  091%=      5-min Rain = 0
KPFS 171110Z 34008KT 06/04 A30 RMK A01 T00550035  RH  089%=      5-min Rain = 0
KPFS 171115Z 35009KT 06/03 A2999 RMK A01 T00630034  RH  083%=      5-min Rain = 0
KPFS 171120Z 35009G14KT 07/03 A30 RMK A01 T00680032  RH  079%=      5-min Rain = 0
KPFS 171125Z 35011G16KT 07/03 A30 RMK A01 T00710030  RH  077%=      5-min Rain = 0
KPFS 171130Z 35015G21KT 08/03 A30 RMK A01 T00750029  RH  074%=      5-min Rain = 0
KPFS 171135Z 35017G26KT 08/03 A30 RMK A01 T00780027  RH  071%=      5-min Rain = 0
KPFS 171140Z 35017G24KT 08/02 A30 RMK A01 T00800024  RH  069%=      5-min Rain = 0
KPFS 171145Z 35016G22KT 08/02 A30 RMK A01 T00800022  RH  068%=      5-min Rain = 0
KPFS 171150Z 36016G22KT 08/02 A30 RMK A01 T00780021  RH  068%=      5-min Rain = 0
KPFS 171155Z 36014G21KT 08/02 A30 RMK A01 T00770020  RH  068%=      5-min Rain = 0
KPFS 171200Z 00014G20KT 08/02 A3001 RMK A01 T00760019  RH  068%=      5-min Rain = 0
KPFS 171205Z 36013G19KT 08/02 A3001 RMK A01 T00760018  RH  068%=      5-min Rain = 0
KPFS 171210Z 35013KT 08/02 A3002 RMK A01 T00750017  RH  068%=      5-min Rain = 0
KPFS 171215Z 36013G20KT 08/02 A3003 RMK A01 T00760016  RH  067%=      5-min Rain = 0
KPFS 171220Z 36014G19KT 08/02 A3003 RMK A01 T00770015  RH  066%=      5-min Rain = 0
KPFS 171225Z 36013G21KT 08/01 A3003 RMK A01 T00780014  RH  065%=      5-min Rain = 0
KPFS 171230Z 00013G18KT 08/01 A3003 RMK A01 T00780013  RH  064%=      5-min Rain = 0
KPFS 171235Z 36013G19KT 08/01 A3004 RMK A01 T00790013  RH  064%=      5-min Rain = 0
KPFS 171240Z 35013G18KT 08/01 A3004 RMK A01 T00800012  RH  063%=      5-min Rain = 0
KPFS 171245Z 36014G20KT 08/01 A3004 RMK A01 T00800012  RH  063%=      5-min Rain = 0
KPFS 171250Z 36015G20KT 08/01 A3004 RMK A01 T00810011  RH  062%=      5-min Rain = 0
KPFS 171255Z 35017G22KT 08/01 A3004 RMK A01 T00830009  RH  061%=      5-min Rain = 0
KPFS 171300Z 36015G21KT 08/01 A3005 RMK A01 T00830008  RH  060%=      5-min Rain = 0
KPFS 171305Z 36014G21KT 08/01 A3005 RMK A01 T00830007  RH  060%=      5-min Rain = 0
KPFS 171310Z 36016G22KT 08/01 A3005 RMK A01 T00840007  RH  059%=      5-min Rain = 0
KPFS 171315Z 36015G20KT 09/01 A3006 RMK A01 T00850006  RH  059%=      5-min Rain = 0
KPFS 171320Z 35015G21KT 09/01 A3006 RMK A01 T00850006  RH  058%=      5-min Rain = 0
KPFS 171325Z 36017G25KT 09/01 A3006 RMK A01 T00870006  RH  058%=      5-min Rain = 0
KPFS 171330Z 36016G27KT 09/01 A3006 RMK A01 T00880006  RH  057%=      5-min Rain = 0
KPFS 171335Z 36017G22KT 09/01 A3007 RMK A01 T00890006  RH  057%=      5-min Rain = 0
KPFS 171340Z 36017G26KT 09/01 A3007 RMK A01 T00890007  RH  057%=      5-min Rain = 0
KPFS 171345Z 36017G24KT 09/01 A3007 RMK A01 T00900007  RH  057%=      5-min Rain = 0
KPFS 171350Z 36017G24KT 09/01 A3007 RMK A01 T00910007  RH  057%=      5-min Rain = 0
KPFS 171355Z 00019G27KT 09/01 A3008 RMK A01 T00920008  RH  057%=      5-min Rain = 0
KPFS 171400Z 36020G27KT 09/01 A3008 RMK A01 T00930009  RH  056%=      5-min Rain = 0
KPFS 171405Z 36018G25KT 09/01 A3008 RMK A01 T00940009  RH  056%=      5-min Rain = 0
KPFS 171410Z 36018G25KT 10/01 A3009 RMK A01 T00960010  RH  056%=      5-min Rain = 0
KPFS 171415Z 00018G26KT 10/01 A3009 RMK A01 T00970010  RH  056%=      5-min Rain = 0
KPFS 171420Z 00018G25KT 10/01 A3009 RMK A01 T00980011  RH  055%=      5-min Rain = 0
KPFS 171425Z 36018G25KT 10/01 A3009 RMK A01 T01000012  RH  055%=      5-min Rain = 0
KPFS 171430Z 36019G27KT 10/01 A3009 RMK A01 T01020012  RH  055%=      5-min Rain = 0
KPFS 171435Z 36019G27KT 10/01 A301 RMK A01 T01030013  RH  054%=      5-min Rain = 0
KPFS 171440Z 36018G25KT 11/01 A301 RMK A01 T01050013  RH  054%=      5-min Rain = 0
KPFS 171445Z 00017G29KT 11/01 A301 RMK A01 T01060014  RH  054%=      5-min Rain = 0
KPFS 171450Z 00018G26KT 11/02 A3011 RMK A01 T01080015  RH  053%=      5-min Rain = 0
KPFS 171455Z 00019G28KT 11/02 A3011 RMK A01 T01100015  RH  053%=      5-min Rain = 0
KPFS 171500Z 00016G24KT 11/02 A3011 RMK A01 T01110015  RH  052%=      5-min Rain = 0
KPFS 171505Z 00019G28KT 11/02 A3011 RMK A01 T01130016  RH  052%=      5-min Rain = 0
KPFS 171510Z 00021G30KT 11/02 A3011 RMK A01 T01140016  RH  051%=      5-min Rain = 0
KPFS 171515Z 01020G30KT 12/02 A3011 RMK A01 T01160016  RH  051%=      5-min Rain = 0
KPFS 171520Z 01019G30KT 12/02 A3011 RMK A01 T01170017  RH  051%=      5-min Rain = 0
KPFS 171525Z 01020G27KT 12/02 A3011 RMK A01 T01190017  RH  050%=      5-min Rain = 0
KPFS 171530Z 01019G30KT 12/02 A3011 RMK A01 T01200017  RH  050%=      5-min Rain = 0
KPFS 171535Z 00019G28KT 12/02 A3011 RMK A01 T01220017  RH  050%=      5-min Rain = 0
KPFS 171540Z 00019G27KT 12/02 A3011 RMK A01 T01230017  RH  049%=      5-min Rain = 0
KPFS 171545Z 01020G26KT 12/02 A3011 RMK A01 T01230017  RH  049%=      5-min Rain = 0
KPFS 171550Z 00021G28KT 13/02 A3011 RMK A01 T01260017  RH  048%=      5-min Rain = 0
KPFS 171555Z 01018G28KT 13/02 A3011 RMK A01 T01270018  RH  048%=      5-min Rain = 0
KPFS 171600Z 00020G31KT 13/02 A3012 RMK A01 T01270017  RH  048%=      5-min Rain = 0
KPFS 171605Z 01020G28KT 13/02 A3012 RMK A01 T01280017  RH  047%=      5-min Rain = 0
KPFS 171610Z 01019G24KT 13/02 A3012 RMK A01 T01300017  RH  047%=      5-min Rain = 0
KPFS 171615Z 00020G29KT 13/02 A3012 RMK A01 T01310016  RH  046%=      5-min Rain = 0
KPFS 171620Z 01020G27KT 13/02 A3012 RMK A01 T01320016  RH  046%=      5-min Rain = 0
KPFS 171625Z 01019G27KT 13/02 A3012 RMK A01 T01330017  RH  046%=      5-min Rain = 0
KPFS 171630Z 01022G27KT 13/02 A3012 RMK A01 T01330016  RH  045%=      5-min Rain = 0
KPFS 171635Z 01020G27KT 13/02 A3012 RMK A01 T01340016  RH  045%=      5-min Rain = 0
KPFS 171640Z 01019G29KT 14/02 A3011 RMK A01 T01360016  RH  045%=      5-min Rain = 0
KPFS 171645Z 36016G25KT 14/02 A3012 RMK A01 T01380017  RH  044%=      5-min Rain = 0
KPFS 171650Z 00018G25KT 14/02 A3012 RMK A01 T01400017  RH  044%=      5-min Rain = 0
KPFS 171655Z 01018G23KT 14/02 A3012 RMK A01 T01390017  RH  044%=      5-min Rain = 0
KPFS 171700Z 00016G21KT 14/02 A3012 RMK A01 T01420017  RH  043%=      5-min Rain = 0
KPFS 171705Z 01015G23KT 14/02 A3012 RMK A01 T01430017  RH  043%=      5-min Rain = 0
KPFS 171710Z 01015G23KT 15/02 A3012 RMK A01 T01450017  RH  042%=      5-min Rain = 0
KPFS 171715Z 01015G21KT 15/02 A3012 RMK A01 T01480017  RH  042%=      5-min Rain = 0
KPFS 171720Z 01015G24KT 15/02 A3012 RMK A01 T01480016  RH  041%=      5-min Rain = 0
KPFS 171725Z 01016G21KT 15/02 A3011 RMK A01 T01500016  RH  041%=      5-min Rain = 0
KPFS 171730Z 01016G23KT 15/02 A3011 RMK A01 T01500016  RH  041%=      5-min Rain = 0
KPFS 171735Z 00016G22KT 15/02 A3011 RMK A01 T01510016  RH  040%=      5-min Rain = 0
KPFS 171740Z 01015G20KT 15/02 A3011 RMK A01 T01540016  RH  040%=      5-min Rain = 0
KPFS 171745Z 01015G23KT 16/02 A3011 RMK A01 T01580017  RH  039%=      5-min Rain = 0
KPFS 171750Z 01015G22KT 16/02 A3011 RMK A01 T01570016  RH  039%=      5-min Rain = 0
KPFS 171755Z 01016G22KT 16/02 A3011 RMK A01 T01550016  RH  039%=      5-min Rain = 0
KPFS 171800Z 00014G20KT 16/02 A301 RMK A01 T01590018  RH  039%=      5-min Rain = 0
KPFS 171805Z 01015KT 16/02 A301 RMK A01 T01610017  RH  038%=      5-min Rain = 0
KPFS 171810Z 00013G19KT 16/02 A301 RMK A01 T01610017  RH  038%=      5-min Rain = 0
KPFS 171815Z 01012G20KT 17/02 A301 RMK A01 T01660019  RH  038%=      5-min Rain = 0
KPFS 171820Z 00015G22KT 16/02 A301 RMK A01 T01640017  RH  038%=      5-min Rain = 0
KPFS 171825Z 00014G21KT 16/02 A301 RMK A01 T01620016  RH  038%=      5-min Rain = 0
KPFS 171830Z 35013G20KT 17/02 A301 RMK A01 T01650017  RH  037%=      5-min Rain = 0
KPFS 171835Z 35014G19KT 17/02 A301 RMK A01 T01670016  RH  037%=      5-min Rain = 0
KPFS 171840Z 35015G21KT 17/02 A3009 RMK A01 T01660016  RH  037%=      5-min Rain = 0
KPFS 171845Z 36015G20KT 17/02 A3009 RMK A01 T01650016  RH  037%=      5-min Rain = 0
KPFS 171850Z 36016G22KT 17/02 A3009 RMK A01 T01660016  RH  037%=      5-min Rain = 0
KPFS 171855Z 36014G20KT 17/02 A3009 RMK A01 T01670017  RH  037%=      5-min Rain = 0
KPFS 171900Z 00017G22KT 17/02 A3009 RMK A01 T01680017  RH  036%=      5-min Rain = 0
KPFS 171905Z 01016G23KT 17/02 A3009 RMK A01 T01670017  RH  037%=      5-min Rain = 0
KPFS 171910Z 01015G20KT 17/02 A3009 RMK A01 T01690017  RH  037%=      5-min Rain = 0
KPFS 171915Z 01016G24KT 17/02 A3009 RMK A01 T01690017  RH  036%=      5-min Rain = 0
KPFS 171920Z 35014G19KT 17/02 A3008 RMK A01 T01700017  RH  036%=      5-min Rain = 0
KPFS 171925Z 01015G20KT 18/02 A3008 RMK A01 T01750019  RH  036%=      5-min Rain = 0
KPFS 171930Z 01015G23KT 17/02 A3008 RMK A01 T01730018  RH  036%=      5-min Rain = 0
KPFS 171935Z 01014G19KT 18/02 A3008 RMK A01 T01750018  RH  036%=      5-min Rain = 0
KPFS 171940Z 36015G20KT 17/02 A3008 RMK A01 T01720017  RH  036%=      5-min Rain = 0
KPFS 171945Z 01014G20KT 17/02 A3008 RMK A01 T01740018  RH  036%=      5-min Rain = 0
KPFS 171950Z 02014G19KT 17/02 A3008 RMK A01 T01730017  RH  036%=      5-min Rain = 0
KPFS 171955Z 01015G22KT 18/02 A3008 RMK A01 T01750017  RH  035%=      5-min Rain = 0
KPFS 172000Z 01012G18KT 18/02 A3008 RMK A01 T01750018  RH  035%=      5-min Rain = 0
KPFS 172005Z 35013G21KT 18/02 A3008 RMK A01 T01780017  RH  035%=      5-min Rain = 0
KPFS 172010Z 01014G19KT 18/02 A3007 RMK A01 T01770017  RH  035%=      5-min Rain = 0
KPFS 172015Z 01011G16KT 17/02 A3007 RMK A01 T01740016  RH  035%=      5-min Rain = 0
KPFS 172020Z 00009G14KT 18/02 A3007 RMK A01 T01790017  RH  034%=      5-min Rain = 0
KPFS 172025Z 02011G18KT 18/02 A3007 RMK A01 T01800016  RH  034%=      5-min Rain = 0
KPFS 172030Z 01011G16KT 18/02 A3007 RMK A01 T01780016  RH  034%=      5-min Rain = 0
KPFS 172035Z 36011G17KT 18/02 A3007 RMK A01 T01770015  RH  034%=      5-min Rain = 0
KPFS 172040Z 36009G15KT 18/02 A3006 RMK A01 T01780015  RH  034%=      5-min Rain = 0
KPFS 172045Z 02011G17KT 18/02 A3006 RMK A01 T01810015  RH  033%=      5-min Rain = 0
KPFS 172050Z 36012G17KT 18/01 A3006 RMK A01 T01810014  RH  033%=      5-min Rain = 0
KPFS 172055Z 02010KT 18/01 A3005 RMK A01 T01810014  RH  033%=      5-min Rain = 0
KPFS 172100Z 00011G16KT 18/01 A3005 RMK A01 T01820013  RH  033%=      5-min Rain = 0
KPFS 172105Z 01012G17KT 18/01 A3005 RMK A01 T01820013  RH  032%=      5-min Rain = 0
KPFS 172110Z 01009G14KT 18/01 A3005 RMK A01 T01830013  RH  032%=      5-min Rain = 0
KPFS 172115Z 02010G18KT 18/01 A3005 RMK A01 T01830012  RH  032%=      5-min Rain = 0
KPFS 172120Z 02010G15KT 18/01 A3005 RMK A01 T01830011  RH  032%=      5-min Rain = 0
KPFS 172125Z 01009KT 19/01 A3005 RMK A01 T01850011  RH  032%=      5-min Rain = 0
KPFS 172130Z 00010G15KT 18/01 A3005 RMK A01 T01840009  RH  031%=      5-min Rain = 0
KPFS 172135Z 01010KT 18/01 A3005 RMK A01 T01830008  RH  031%=      5-min Rain = 0
KPFS 172140Z 01010KT 18/01 A3005 RMK A01 T01810006  RH  031%=      5-min Rain = 0
KPFS 172145Z 01009KT 18/01 A3005 RMK A01 T01820008  RH  032%=      5-min Rain = 0
KPFS 172150Z 00008G13KT 18/01 A3005 RMK A01 T01830008  RH  031%=      5-min Rain = 0
KPFS 172155Z 36009KT 18/01 A3005 RMK A01 T01810007  RH  031%=      5-min Rain = 0
KPFS 172200Z 01008KT 18/01 A3005 RMK A01 T01830007  RH  031%=      5-min Rain = 0
KPFS 172205Z 00007KT 18/01 A3005 RMK A01 T01820007  RH  031%=      5-min Rain = 0
KPFS 172210Z 36008KT 18/01 A3005 RMK A01 T01800007  RH  031%=      5-min Rain = 0
KPFS 172215Z 01008KT 18/01 A3005 RMK A01 T01810006  RH  031%=      5-min Rain = 0
KPFS 172220Z 36007KT 18/01 A3005 RMK A01 T01810005  RH  031%=      5-min Rain = 0
KPFS 172225Z 00006KT 18/01 A3005 RMK A01 T01800006  RH  031%=      5-min Rain = 0
KPFS 172230Z 36008KT 18/01 A3005 RMK A01 T01780005  RH  031%=      5-min Rain = 0
KPFS 172235Z 35007KT 18/00 A3005 RMK A01 T01760004  RH  032%=      5-min Rain = 0
KPFS 172240Z 01007KT 18/00 A3005 RMK A01 T01760004  RH  032%=      5-min Rain = 0
KPFS 172245Z 36006KT 18/00 A3005 RMK A01 T01750004  RH  032%=      5-min Rain = 0
KPFS 172250Z 01006KT 17/01 A3005 RMK A01 T01740005  RH  032%=      5-min Rain = 0
KPFS 172255Z 02006KT 17/01 A3005 RMK A01 T01730005  RH  033%=      5-min Rain = 0
KPFS 172300Z 01006KT 17/00 A3005 RMK A01 T01710004  RH  033%=      5-min Rain = 0
KPFS 172305Z 01004KT 17/01 A3006 RMK A01 T01690006  RH  034%=      5-min Rain = 0
KPFS 172310Z 01005KT 17/01 A3006 RMK A01 T01670006  RH  034%=      5-min Rain = 0
KPFS 172315Z 01005KT 16/01 A3006 RMK A01 T01640007  RH  035%=      5-min Rain = 0
KPFS 172320Z 01005KT 16/01 A3006 RMK A01 T01610006  RH  035%=      5-min Rain = 0
KPFS 172325Z 01005KT 16/01 A3006 RMK A01 T01560007  RH  037%=      5-min Rain = 0
KPFS 172330Z 01005KT 15/01 A3006 RMK A01 T01510006  RH  038%=      5-min Rain = 0
KPFS 172335Z 02006KT 15/01 A3006 RMK A01 T01480006  RH  038%=      5-min Rain = 0
KPFS 172340Z 01006KT 15/01 A3006 RMK A01 T01460005  RH  039%=      5-min Rain = 0
KPFS 172345Z 02006KT 14/01 A3006 RMK A01 T01440005  RH  039%=      5-min Rain = 0
KPFS 172350Z 02006KT 14/01 A3006 RMK A01 T01420005  RH  040%=      5-min Rain = 0
KPFS 172355Z 02005KT 14/01 A3007 RMK A01 T01380005  RH  041%=      5-min Rain = 0
KPFS 180000Z 03006KT 14/01 A3007 RMK A01 T01360005  RH  041%=      5-min Rain = 0
KPFS 180005Z 03006KT 14/01 A3007 RMK A01 T01350006  RH  042%=      5-min Rain = 0
KPFS 180010Z 03006KT 13/01 A3007 RMK A01 T01340005  RH  042%=      5-min Rain = 0
KPFS 180015Z 02006KT 13/01 A3007 RMK A01 T01320005  RH  042%=      5-min Rain = 0
KPFS 180020Z 02006KT 13/01 A3007 RMK A01 T01320005  RH  042%=      5-min Rain = 0
KPFS 180025Z 02005KT 13/01 A3007 RMK A01 T01310005  RH  042%=      5-min Rain = 0
KPFS 180030Z 02005KT 13/01 A3007 RMK A01 T01290005  RH  043%=      5-min Rain = 0
KPFS 180035Z 02004KT 13/01 A3008 RMK A01 T01280005  RH  043%=      5-min Rain = 0
KPFS 180040Z 00002KT 13/01 A3008 RMK A01 T01280005  RH  043%=      5-min Rain = 0
KPFS 180045Z 00003KT 13/01 A3008 RMK A01 T01280005  RH  043%=      5-min Rain = 0
KPFS 180050Z 01003KT 13/01 A3008 RMK A01 T01270005  RH  044%=      5-min Rain = 0
KPFS 180055Z 01004KT 13/01 A3008 RMK A01 T01250005  RH  044%=      5-min Rain = 0
KPFS 180100Z 01003KT 12/01 A3008 RMK A01 T01240005  RH  045%=      5-min Rain = 0
KPFS 180105Z 01004KT 12/01 A3008 RMK A01 T01220005  RH  045%=      5-min Rain = 0
KPFS 180110Z 02004KT 12/01 A3008 RMK A01 T01210005  RH  046%=      5-min Rain = 0
KPFS 180115Z 01004KT 12/01 A3008 RMK A01 T01210005  RH  046%=      5-min Rain = 0
KPFS 180120Z 01003KT 12/01 A3008 RMK A01 T01200005  RH  046%=      5-min Rain = 0
KPFS 180125Z 01003KT 12/01 A3008 RMK A01 T01190005  RH  046%=      5-min Rain = 0
KPFS 180130Z 01002KT 12/01 A3008 RMK A01 T01170005  RH  047%=      5-min Rain = 0
KPFS 180135Z 01002KT 11/00 A3008 RMK A01 T01110004  RH  048%=      5-min Rain = 0
KPFS 180140Z 01002KT 11/01 A3008 RMK A01 T01100005  RH  049%=      5-min Rain = 0
KPFS 180145Z 00001KT 12/01 A3008 RMK A01 T01160005  RH  047%=      5-min Rain = 0
KPFS 180150Z 21001KT 10/00 A3008 RMK A01 T00950004  RH  054%=      5-min Rain = 0
KPFS 180155Z 20002KT 08/01 A3008 RMK A01 T00810006  RH  060%=      5-min Rain = 0
KPFS 180200Z 20000KT 09/01 A3008 RMK A01 T00860007  RH  058%=      5-min Rain = 0
KPFS 180205Z 23001KT 09/01 A3008 RMK A01 T00920007  RH  056%=      5-min Rain = 0
KPFS 180210Z 24001KT 10/01 A3009 RMK A01 T00960006  RH  054%=      5-min Rain = 0
KPFS 180215Z 27001KT 10/01 A3009 RMK A01 T00960006  RH  054%=      5-min Rain = 0
KPFS 180220Z 30002KT 10/01 A3009 RMK A01 T01000006  RH  053%=      5-min Rain = 0
KPFS 180225Z 30001KT 11/01 A3009 RMK A01 T01050006  RH  051%=      5-min Rain = 0
KPFS 180230Z 30001KT 10/01 A3009 RMK A01 T01010005  RH  052%=      5-min Rain = 0
KPFS 180235Z 31001KT 09/00 A3009 RMK A01 T00890004  RH  056%=      5-min Rain = 0
KPFS 180240Z 33001KT 08/01 A301 RMK A01 T00820006  RH  059%=      5-min Rain = 0
KPFS 180245Z 32002KT 09/01 A301 RMK A01 T00890006  RH  057%=      5-min Rain = 0
KPFS 180250Z 32002KT 09/01 A301 RMK A01 T00910006  RH  056%=      5-min Rain = 0
KPFS 180255Z 32003KT 09/01 A301 RMK A01 T00900005  RH  056%=      5-min Rain = 0
KPFS 180300Z 31003KT 09/01 A3009 RMK A01 T00900005  RH  056%=      5-min Rain = 0
KPFS 180305Z 30002KT 09/01 A301 RMK A01 T00870005  RH  057%=      5-min Rain = 0
KPFS 180310Z 27001KT 09/00 A301 RMK A01 T00860004  RH  057%=      5-min Rain = 0
KPFS 180315Z 26001KT 09/01 A301 RMK A01 T00850005  RH  057%=      5-min Rain = 0
KPFS 180320Z 25001KT 09/00 A301 RMK A01 T00860004  RH  057%=      5-min Rain = 0
KPFS 180325Z 25002KT 09/01 A3009 RMK A01 T00880005  RH  056%=      5-min Rain = 0
KPFS 180330Z 23002KT 09/00 A3009 RMK A01 T00920004  RH  055%=      5-min Rain = 0
KPFS 180335Z 20001KT 08/00 A3009 RMK A01 T00800004  RH  059%=      5-min Rain = 0
KPFS 180340Z 28000KT 08/01 A3009 RMK A01 T00810005  RH  060%=      5-min Rain = 0
KPFS 180345Z 31001KT 09/01 A3009 RMK A01 T00930005  RH  055%=      5-min Rain = 0
KPFS 180350Z 34002KT 09/00 A3008 RMK A01 T00930004  RH  054%=      5-min Rain = 0
KPFS 180355Z 35002KT 09/00 A3008 RMK A01 T00890004  RH  056%=      5-min Rain = 0
KPFS 180400Z 36003KT 09/00 A3008 RMK A01 T00860004  RH  057%=      5-min Rain = 0
KPFS 180405Z 02005KT 07/00 A3007 RMK A01 T00690003  RH  064%=      5-min Rain = 0
KPFS 180410Z 02006KT 06/00 A3007 RMK A01 T00550004  RH  071%=      5-min Rain = 0
KPFS 180415Z 01004KT 06/01 A3008 RMK A01 T00550005  RH  071%=      5-min Rain = 0
KPFS 180420Z 25002KT 06/00 A3008 RMK A01 T00590004  RH  068%=      5-min Rain = 0
KPFS 180425Z 17004KT 04/M00 A3008 RMK A01 T00421003  RH  074%=      5-min Rain = 0
KPFS 180430Z 17002KT 04/M00 A3008 RMK A01 T00351002  RH  078%=      5-min Rain = 0
KPFS 180435Z 22002KT 05/01 A3008 RMK A01 T00450006  RH  077%=      5-min Rain = 0
KPFS 180440Z 22002KT 06/01 A3008 RMK A01 T00560007  RH  072%=      5-min Rain = 0
KPFS 180445Z 20002KT 06/01 A3008 RMK A01 T00610006  RH  069%=      5-min Rain = 0
KPFS 180450Z 17004KT 06/01 A3008 RMK A01 T00600005  RH  069%=      5-min Rain = 0
KPFS 180455Z 18004KT 06/01 A3008 RMK A01 T00600006  RH  069%=      5-min Rain = 0
KPFS 180500Z 19003KT 07/01 A3007 RMK A01 T00680006  RH  066%=      5-min Rain = 0
KPFS 180505Z 19003KT 07/01 A3007 RMK A01 T00660005  RH  066%=      5-min Rain = 0
KPFS 180510Z 21003KT 07/01 A3007 RMK A01 T00660005  RH  066%=      5-min Rain = 0
KPFS 180515Z 21003KT 07/01 A3006 RMK A01 T00700005  RH  064%=      5-min Rain = 0
KPFS 180520Z 22003KT 07/00 A3006 RMK A01 T00720004  RH  063%=      5-min Rain = 0
KPFS 180525Z 20005KT 06/00 A3006 RMK A01 T00630002  RH  066%=      5-min Rain = 0
KPFS 180530Z 19005KT 05/00 A3006 RMK A01 T00540003  RH  070%=      5-min Rain = 0
KPFS 180535Z 19003KT 05/00 A3005 RMK A01 T00530004  RH  072%=      5-min Rain = 0
KPFS 180540Z 19002KT 05/00 A3005 RMK A01 T00510004  RH  073%=      5-min Rain = 0
KPFS 180545Z 19003KT 06/01 A3005 RMK A01 T00550005  RH  071%=      5-min Rain = 0
KPFS 180550Z 18004KT 06/01 A3005 RMK A01 T00570006  RH  071%=      5-min Rain = 0
KPFS 180555Z 18005KT 06/01 A3005 RMK A01 T00560005  RH  071%=      5-min Rain = 0

Page generated in 0.0094 seconds.